Ikarus — SWEW — position and weather

sailwx.info

Track history (hours):
 
Tides and Currents Weather Stations Pressure Air Temp Water Temp Dewpoint Dewpoint Depression Visibility Wind Speed Wind Dir Waves Ship Positions

Ikarus

Last reported at 2014-Aug-27 22:21 UTC. Time now 2014-Aug-27 23:18 UTC.
Position N 41°22' E 002°11'.

Length 200 m; draft 6.4 m.

Type: Ship. MMSI: 239513000.

Date/timePositionNaut miles runAvg speedWind from/ knotsBaromVisibWave heightAir tempDewpointWater temp
2014-Aug-27 22:21N 41°22' E 002°11'0 0.0
2014-Aug-27 21:33N 41°22' E 002°11'0 0.0
2014-Aug-27 20:27N 41°22' E 002°11'0 0.0
2014-Aug-27 19:32N 41°22' E 002°11'2 2.1
2014-Aug-27 18:20N 41°20' E 002°13'2329.2
2014-Aug-27 17:33N 40°60' E 001°60'1413.8
2014-Aug-27 16:33N 40°48' E 001°52'2120.9
2014-Aug-27 15:33N 40°29' E 001°39'2120.8
2014-Aug-27 14:33N 40°11' E 001°26'2120.8
2014-Aug-27 13:33N 39°52' E 001°14'2720.9
2014-Aug-27 12:15N 39°28' E 000°58'1420.8
2014-Aug-27 11:34N 39°15' E 000°50'2120.6
2014-Aug-27 10:33N 38°56' E 000°38'2020.3
2014-Aug-27 09:33N 38°38' E 000°25'2020.2
2014-Aug-27 08:33N 38°22' E 000°10'2121.1
2014-Aug-27 07:33N 38°04' W 000°04'2121.3
2014-Aug-27 06:33N 37°47' W 000°19'2121.4
2014-Aug-27 05:33N 37°29' W 000°35'2121.2
2014-Aug-27 04:33N 37°15' W 000°55'2121.1
2014-Aug-27 03:33N 37°01' W 001°14'2121.0
2014-Aug-27 02:33N 36°48' W 001°35'2221.4
2014-Aug-27 01:33N 36°34' W 001°56'17221.5
2014-Aug-26 17:33N 35°58' W 005°24'4 0.5
2014-Aug-26 08:34N 36°01' W 005°20'17215.0
2014-Aug-25 21:03N 36°40' W 001°52'5916.7
2014-Aug-25 17:30N 37°19' W 000°56'1516.2
2014-Aug-25 16:33N 37°29' W 000°42'1615.9
2014-Aug-25 15:33N 37°41' W 000°28'1616.2
2014-Aug-25 14:33N 37°54' W 000°17'1616.2
2014-Aug-25 13:33N 38°08' W 000°06'1716.2
2014-Aug-25 12:32N 38°22' E 000°05'1716.4
2014-Aug-25 11:30N 38°36' E 000°17'1515.7
2014-Aug-25 10:33N 38°49' E 000°27'1515.7
2014-Aug-25 09:34N 39°02' E 000°37'1616.2
2014-Aug-25 08:33N 39°17' E 000°47'2217.1
2014-Aug-25 07:15N 39°37' E 001°00'1116.1
2014-Aug-25 06:34N 39°46' E 001°07'1717.1
2014-Aug-25 05:33N 40°01' E 001°17'1717.0
2014-Aug-25 04:34N 40°16' E 001°28'1716.9
2014-Aug-25 03:33N 40°31' E 001°38'1717.2
2014-Aug-25 02:34N 40°46' E 001°49'1717.2
2014-Aug-25 01:33N 41°01' E 001°60'1716.9
2014-Aug-25 00:33N 41°17' E 002°10'5 4.8
2014-Aug-24 23:29N 41°22' E 002°11'0 0.0
2014-Aug-24 22:26N 41°22' E 002°11'0 0.0
2014-Aug-24 19:28N 41°22' E 002°11'1010.4
2014-Aug-24 18:33N 41°21' E 002°23'6620.0
2014-Aug-24 15:16N 41°49' E 003°43'4 5.8
2014-Aug-24 14:31N 41°51' E 003°49'7 7.3
2014-Aug-24 13:32N 41°54' E 003°57'1615.7
2014-Aug-24 12:30N 42°02' E 004°16'1918.9
2014-Aug-24 11:29N 42°10' E 004°40'2119.2
2014-Aug-24 10:24N 42°19' E 005°05'1619.5
2014-Aug-24 09:33N 42°26' E 005°25'2019.6
2014-Aug-24 08:34N 42°34' E 005°49'2020.3
2014-Aug-24 07:34N 42°43' E 006°14'2020.4
2014-Aug-24 06:34N 42°50' E 006°40'2120.5
2014-Aug-24 05:33N 42°56' E 007°07'2120.7
2014-Aug-24 04:34N 43°02' E 007°34'6120.3
2014-Aug-24 01:33N 43°19' E 008°54'2019.6
2014-Aug-24 00:33N 43°25' E 009°20'1919.2
2014-Aug-23 23:34N 43°30' E 009°46'1918.7
2014-Aug-23 22:34N 43°31' E 010°11'7 6.5
2014-Aug-23 21:33N 43°35' E 010°18'0 0.0
2014-Aug-23 20:33N 43°35' E 010°18'0 0.0
2014-Aug-23 19:33N 43°35' E 010°18'0 0.0
2014-Aug-23 03:33N 43°35' E 010°18'0 0.0
2014-Aug-23 02:33N 43°35' E 010°18'0 0.0
2014-Aug-23 01:33N 43°35' E 010°18'0 0.0
2014-Aug-23 00:33N 43°35' E 010°18'0 0.0
2014-Aug-22 23:33N 43°35' E 010°18'0 0.0
2014-Aug-22 22:33N 43°35' E 010°18'0 0.0
2014-Aug-22 21:33N 43°35' E 010°18'0 0.0
2014-Aug-22 20:33N 43°35' E 010°18'0 0.0
2014-Aug-22 19:33N 43°35' E 010°18'0 0.0
2014-Aug-22 18:34N 43°35' E 010°18'0 0.0
2014-Aug-22 17:33N 43°35' E 010°18'0 0.0
2014-Aug-22 16:33N 43°35' E 010°18'0 0.0
2014-Aug-22 15:33N 43°35' E 010°18'0 0.0
2014-Aug-22 14:33N 43°35' E 010°18'0 0.0
2014-Aug-22 13:33N 43°35' E 010°18'0 0.0
2014-Aug-22 12:33N 43°35' E 010°18'0 0.0
2014-Aug-22 11:33N 43°35' E 010°18'0 0.0
2014-Aug-22 10:33N 43°35' E 010°18'0 0.0
2014-Aug-22 09:33N 43°35' E 010°18'0 0.0
2014-Aug-22 08:33N 43°35' E 010°18'0 0.0
2014-Aug-22 07:33N 43°35' E 010°18'0 0.0
2014-Aug-22 06:33N 43°35' E 010°18'0 0.0
2014-Aug-22 05:33N 43°35' E 010°18'0 0.0
2014-Aug-22 04:33N 43°35' E 010°18'0 0.0
2014-Aug-22 03:33N 43°35' E 010°18'0 0.0
2014-Aug-22 02:33N 43°35' E 010°18'0 0.0
2014-Aug-22 01:33N 43°35' E 010°18'0 0.0
2014-Aug-22 00:33N 43°35' E 010°18'0 0.0
2014-Aug-21 23:33N 43°35' E 010°18'0 0.0
2014-Aug-21 22:33N 43°35' E 010°18'0 0.0
2014-Aug-21 21:33N 43°35' E 010°18'0 0.0
2014-Aug-21 20:33N 43°35' E 010°18'0 0.0
2014-Aug-21 19:33N 43°35' E 010°18'2 1.5
2014-Aug-21 18:33N 43°33' E 010°18'1111.3
2014-Aug-21 17:33N 43°31' E 010°02'1919.0
2014-Aug-21 16:33N 43°28' E 009°36'1918.7
2014-Aug-21 15:34N 43°23' E 009°12'1918.9
2014-Aug-21 14:33N 43°18' E 008°47'1919.2
2014-Aug-21 13:33N 43°12' E 008°22'1919.0
2014-Aug-21 12:33N 43°06' E 007°57'1919.1
2014-Aug-21 11:33N 43°00' E 007°32'2019.7
2014-Aug-21 10:33N 42°54' E 007°06'2019.7
2014-Aug-21 09:34N 42°48' E 006°41'1919.2
2014-Aug-21 08:34N 42°42' E 006°16'1919.2
2014-Aug-21 07:34N 42°35' E 005°52'2020.2
2014-Aug-21 06:34N 42°26' E 005°27'2120.8
2014-Aug-21 05:33N 42°17' E 005°01'2121.4
2014-Aug-21 04:33N 42°08' E 004°35'2020.5
2014-Aug-21 03:33N 41°60' E 004°10'2019.9
2014-Aug-21 02:33N 41°50' E 003°46'1919.2
2014-Aug-21 01:33N 41°42' E 003°23'2120.5
2014-Aug-21 00:33N 41°33' E 002°58'2120.8
2014-Aug-20 23:33N 41°24' E 002°34'1816.9
2014-Aug-20 22:28N 41°19' E 002°10'3 1.4
2014-Aug-20 20:31N 41°22' E 002°11'1 0.5
2014-Aug-20 18:25N 41°21' E 002°10'1213.1
2014-Aug-20 17:28N 41°09' E 002°06'1920.2
2014-Aug-20 16:33N 40°52' E 001°54'2120.8
2014-Aug-20 15:33N 40°34' E 001°42'2120.9
2014-Aug-20 14:33N 40°15' E 001°29'2120.7
2014-Aug-20 13:33N 39°57' E 001°16'2620.5
2014-Aug-20 12:17N 39°34' E 001°02'1720.8
2014-Aug-20 11:28N 39°18' E 000°52'10421.0
2014-Aug-20 06:32N 37°50' W 000°17'2120.6
2014-Aug-20 05:32N 37°33' W 000°31'2020.3
2014-Aug-20 04:32N 37°19' W 000°51'22820.7
2014-Aug-19 17:32N 35°59' W 005°16'6 0.7
2014-Aug-19 08:33N 35°60' W 005°24'22413.7
2014-Aug-18 16:13N 37°15' W 001°02'1217.3
2014-Aug-18 15:32N 37°23' W 000°50'1717.5
2014-Aug-18 14:33N 37°34' W 000°34'1716.9
2014-Aug-18 13:33N 37°48' W 000°22'1817.1
2014-Aug-18 12:29N 38°03' W 000°10'1617.0
2014-Aug-18 11:32N 38°17' E 000°02'1817.0
2014-Aug-18 10:27N 38°32' E 000°15'1917.1
2014-Aug-18 09:21N 38°48' E 000°27'1416.9
2014-Aug-18 08:33N 39°00' E 000°35'5217.2
2014-Aug-18 05:33N 39°46' E 001°07'1717.4
2014-Aug-18 04:33N 40°01' E 001°17'1817.6
2014-Aug-18 03:33N 40°17' E 001°28'1817.8
2014-Aug-18 02:33N 40°32' E 001°39'1616.4
2014-Aug-18 01:34N 40°46' E 001°50'1917.7
2014-Aug-18 00:29N 41°03' E 002°01'  
Track history (hours):
 
Tides and Currents Weather Stations Pressure Air Temp Water Temp Dewpoint Dewpoint Depression Visibility Wind Speed Wind Dir Waves Ship Positions

Ikarus

Last reported at 2014-Aug-27 22:21 UTC. Time now 2014-Aug-27 23:18 UTC.
Position N 41°22' E 002°11'.

Length 200 m; draft 6.4 m.

Type: Ship. MMSI: 239513000.

Date/timePositionNaut miles runAvg speedWind from/ knotsBaromVisibWave heightAir tempDewpointWater temp
2014-Aug-27 22:21N 41°22' E 002°11'0 0.0
2014-Aug-27 21:33N 41°22' E 002°11'0 0.0
2014-Aug-27 20:27N 41°22' E 002°11'0 0.0
2014-Aug-27 19:32N 41°22' E 002°11'2 2.1
2014-Aug-27 18:20N 41°20' E 002°13'2329.2
2014-Aug-27 17:33N 40°60' E 001°60'1413.8
2014-Aug-27 16:33N 40°48' E 001°52'2120.9
2014-Aug-27 15:33N 40°29' E 001°39'2120.8
2014-Aug-27 14:33N 40°11' E 001°26'2120.8
2014-Aug-27 13:33N 39°52' E 001°14'2720.9
2014-Aug-27 12:15N 39°28' E 000°58'1420.8
2014-Aug-27 11:34N 39°15' E 000°50'2120.6
2014-Aug-27 10:33N 38°56' E 000°38'2020.3
2014-Aug-27 09:33N 38°38' E 000°25'2020.2
2014-Aug-27 08:33N 38°22' E 000°10'2121.1
2014-Aug-27 07:33N 38°04' W 000°04'2121.3
2014-Aug-27 06:33N 37°47' W 000°19'2121.4
2014-Aug-27 05:33N 37°29' W 000°35'2121.2
2014-Aug-27 04:33N 37°15' W 000°55'2121.1
2014-Aug-27 03:33N 37°01' W 001°14'2121.0
2014-Aug-27 02:33N 36°48' W 001°35'2221.4
2014-Aug-27 01:33N 36°34' W 001°56'17221.5
2014-Aug-26 17:33N 35°58' W 005°24'4 0.5
2014-Aug-26 08:34N 36°01' W 005°20'17215.0
2014-Aug-25 21:03N 36°40' W 001°52'5916.7
2014-Aug-25 17:30N 37°19' W 000°56'1516.2
2014-Aug-25 16:33N 37°29' W 000°42'1615.9
2014-Aug-25 15:33N 37°41' W 000°28'1616.2
2014-Aug-25 14:33N 37°54' W 000°17'1616.2
2014-Aug-25 13:33N 38°08' W 000°06'1716.2
2014-Aug-25 12:32N 38°22' E 000°05'1716.4
2014-Aug-25 11:30N 38°36' E 000°17'1515.7
2014-Aug-25 10:33N 38°49' E 000°27'1515.7
2014-Aug-25 09:34N 39°02' E 000°37'1616.2
2014-Aug-25 08:33N 39°17' E 000°47'2217.1
2014-Aug-25 07:15N 39°37' E 001°00'1116.1
2014-Aug-25 06:34N 39°46' E 001°07'1717.1
2014-Aug-25 05:33N 40°01' E 001°17'1717.0
2014-Aug-25 04:34N 40°16' E 001°28'1716.9
2014-Aug-25 03:33N 40°31' E 001°38'1717.2
2014-Aug-25 02:34N 40°46' E 001°49'1717.2
2014-Aug-25 01:33N 41°01' E 001°60'1716.9
2014-Aug-25 00:33N 41°17' E 002°10'5 4.8
2014-Aug-24 23:29N 41°22' E 002°11'0 0.0
2014-Aug-24 22:26N 41°22' E 002°11'0 0.0
2014-Aug-24 19:28N 41°22' E 002°11'1010.4
2014-Aug-24 18:33N 41°21' E 002°23'6620.0
2014-Aug-24 15:16N 41°49' E 003°43'4 5.8
2014-Aug-24 14:31N 41°51' E 003°49'7 7.3
2014-Aug-24 13:32N 41°54' E 003°57'1615.7
2014-Aug-24 12:30N 42°02' E 004°16'1918.9
2014-Aug-24 11:29N 42°10' E 004°40'2119.2
2014-Aug-24 10:24N 42°19' E 005°05'1619.5
2014-Aug-24 09:33N 42°26' E 005°25'2019.6
2014-Aug-24 08:34N 42°34' E 005°49'2020.3
2014-Aug-24 07:34N 42°43' E 006°14'2020.4
2014-Aug-24 06:34N 42°50' E 006°40'2120.5
2014-Aug-24 05:33N 42°56' E 007°07'2120.7
2014-Aug-24 04:34N 43°02' E 007°34'6120.3
2014-Aug-24 01:33N 43°19' E 008°54'2019.6
2014-Aug-24 00:33N 43°25' E 009°20'1919.2
2014-Aug-23 23:34N 43°30' E 009°46'1918.7
2014-Aug-23 22:34N 43°31' E 010°11'7 6.5
2014-Aug-23 21:33N 43°35' E 010°18'0 0.0
2014-Aug-23 20:33N 43°35' E 010°18'0 0.0
2014-Aug-23 19:33N 43°35' E 010°18'0 0.0
2014-Aug-23 03:33N 43°35' E 010°18'0 0.0
2014-Aug-23 02:33N 43°35' E 010°18'0 0.0
2014-Aug-23 01:33N 43°35' E 010°18'0 0.0
2014-Aug-23 00:33N 43°35' E 010°18'0 0.0
2014-Aug-22 23:33N 43°35' E 010°18'0 0.0
2014-Aug-22 22:33N 43°35' E 010°18'0 0.0
2014-Aug-22 21:33N 43°35' E 010°18'0 0.0
2014-Aug-22 20:33N 43°35' E 010°18'0 0.0
2014-Aug-22 19:33N 43°35' E 010°18'0 0.0
2014-Aug-22 18:34N 43°35' E 010°18'0 0.0
2014-Aug-22 17:33N 43°35' E 010°18'0 0.0
2014-Aug-22 16:33N 43°35' E 010°18'0 0.0
2014-Aug-22 15:33N 43°35' E 010°18'0 0.0
2014-Aug-22 14:33N 43°35' E 010°18'0 0.0
2014-Aug-22 13:33N 43°35' E 010°18'0 0.0
2014-Aug-22 12:33N 43°35' E 010°18'0 0.0
2014-Aug-22 11:33N 43°35' E 010°18'0 0.0
2014-Aug-22 10:33N 43°35' E 010°18'0 0.0
2014-Aug-22 09:33N 43°35' E 010°18'0 0.0
2014-Aug-22 08:33N 43°35' E 010°18'0 0.0
2014-Aug-22 07:33N 43°35' E 010°18'0 0.0
2014-Aug-22 06:33N 43°35' E 010°18'0 0.0
2014-Aug-22 05:33N 43°35' E 010°18'0 0.0
2014-Aug-22 04:33N 43°35' E 010°18'0 0.0
2014-Aug-22 03:33N 43°35' E 010°18'0 0.0
2014-Aug-22 02:33N 43°35' E 010°18'0 0.0
2014-Aug-22 01:33N 43°35' E 010°18'0 0.0
2014-Aug-22 00:33N 43°35' E 010°18'0 0.0
2014-Aug-21 23:33N 43°35' E 010°18'0 0.0
2014-Aug-21 22:33N 43°35' E 010°18'0 0.0
2014-Aug-21 21:33N 43°35' E 010°18'0 0.0
2014-Aug-21 20:33N 43°35' E 010°18'0 0.0
2014-Aug-21 19:33N 43°35' E 010°18'2 1.5
2014-Aug-21 18:33N 43°33' E 010°18'1111.3
2014-Aug-21 17:33N 43°31' E 010°02'1919.0
2014-Aug-21 16:33N 43°28' E 009°36'1918.7
2014-Aug-21 15:34N 43°23' E 009°12'1918.9
2014-Aug-21 14:33N 43°18' E 008°47'1919.2
2014-Aug-21 13:33N 43°12' E 008°22'1919.0
2014-Aug-21 12:33N 43°06' E 007°57'1919.1
2014-Aug-21 11:33N 43°00' E 007°32'2019.7
2014-Aug-21 10:33N 42°54' E 007°06'2019.7
2014-Aug-21 09:34N 42°48' E 006°41'1919.2
2014-Aug-21 08:34N 42°42' E 006°16'1919.2
2014-Aug-21 07:34N 42°35' E 005°52'2020.2
2014-Aug-21 06:34N 42°26' E 005°27'2120.8
2014-Aug-21 05:33N 42°17' E 005°01'2121.4
2014-Aug-21 04:33N 42°08' E 004°35'2020.5
2014-Aug-21 03:33N 41°60' E 004°10'2019.9
2014-Aug-21 02:33N 41°50' E 003°46'1919.2
2014-Aug-21 01:33N 41°42' E 003°23'2120.5
2014-Aug-21 00:33N 41°33' E 002°58'2120.8
2014-Aug-20 23:33N 41°24' E 002°34'1816.9
2014-Aug-20 22:28N 41°19' E 002°10'3 1.4
2014-Aug-20 20:31N 41°22' E 002°11'1 0.5
2014-Aug-20 18:25N 41°21' E 002°10'1213.1
2014-Aug-20 17:28N 41°09' E 002°06'1920.2
2014-Aug-20 16:33N 40°52' E 001°54'2120.8
2014-Aug-20 15:33N 40°34' E 001°42'2120.9
2014-Aug-20 14:33N 40°15' E 001°29'2120.7
2014-Aug-20 13:33N 39°57' E 001°16'2620.5
2014-Aug-20 12:17N 39°34' E 001°02'1720.8
2014-Aug-20 11:28N 39°18' E 000°52'10421.0
2014-Aug-20 06:32N 37°50' W 000°17'2120.6
2014-Aug-20 05:32N 37°33' W 000°31'2020.3
2014-Aug-20 04:32N 37°19' W 000°51'22820.7
2014-Aug-19 17:32N 35°59' W 005°16'6 0.7
2014-Aug-19 08:33N 35°60' W 005°24'22413.7
2014-Aug-18 16:13N 37°15' W 001°02'1217.3
2014-Aug-18 15:32N 37°23' W 000°50'1717.5
2014-Aug-18 14:33N 37°34' W 000°34'1716.9
2014-Aug-18 13:33N 37°48' W 000°22'1817.1
2014-Aug-18 12:29N 38°03' W 000°10'1617.0
2014-Aug-18 11:32N 38°17' E 000°02'1817.0
2014-Aug-18 10:27N 38°32' E 000°15'1917.1
2014-Aug-18 09:21N 38°48' E 000°27'1416.9
2014-Aug-18 08:33N 39°00' E 000°35'5217.2
2014-Aug-18 05:33N 39°46' E 001°07'1717.4
2014-Aug-18 04:33N 40°01' E 001°17'1817.6
2014-Aug-18 03:33N 40°17' E 001°28'1817.8
2014-Aug-18 02:33N 40°32' E 001°39'1616.4
2014-Aug-18 01:34N 40°46' E 001°50'1917.7
2014-Aug-18 00:29N 41°03' E 002°01'  

Dump ship's entire track history